Time;durP1;ratioP1;P1;durP2;ratioP2;P2;SDS_P1;SDS_P2;PMS_P1;PMS_P2;Temp;Humidity;BMP_temperature;BMP_pressure;BME280_temperature;BME280_humidity;BME280_pressure;Samples;Min_cycle;Max_cycle;Signal;HPM_P1;HPM_P2
2023/07/13 00:01:28;;;;;;;2.88;2.30;;;;;;;-145.63;46.67;39147.44;5066572;28;20032;-66
2023/07/13 00:03:54;;;;;;;2.30;2.10;;;;;;;-145.63;46.41;39155.28;5066523;28;20205;-66
2023/07/13 00:06:20;;;;;;;3.75;2.53;;;;;;;-145.63;46.35;39145.50;5079187;28;20057;-67
2023/07/13 00:08:47;;;;;;;3.25;2.40;;;;;;;-145.63;46.48;39174.84;5078583;28;20045;-67
2023/07/13 00:11:14;;;;;;;3.72;2.05;;;;;;;-145.63;46.69;39165.06;5069572;28;20038;-67
2023/07/13 00:13:40;;;;;;;3.92;2.25;;;;;;;-145.63;46.69;39129.84;5086459;28;20021;-66
2023/07/13 00:16:05;;;;;;;7.18;2.45;;;;;;;-145.63;46.75;39135.72;5067651;28;20067;-67
2023/07/13 00:18:31;;;;;;;5.07;2.40;;;;;;;-145.63;46.59;39186.56;5065143;28;20056;-66
2023/07/13 00:21:05;;;;;;;2.58;2.10;;;;;;;-145.63;46.81;39157.22;5076784;28;20032;-66
2023/07/13 00:23:35;;;;;;;3.03;2.22;;;;;;;-145.63;46.49;39157.22;5080407;28;20032;-66
2023/07/13 00:26:06;;;;;;;2.65;2.45;;;;;;;-145.63;46.94;39180.69;5066111;28;20028;-66
2023/07/13 00:28:32;;;;;;;4.47;2.13;;;;;;;-145.63;46.97;39161.13;5066048;28;20078;-66
2023/07/13 00:30:58;;;;;;;2.85;2.20;;;;;;;-145.63;46.79;39167.00;5066212;28;20040;-66
2023/07/13 00:33:24;;;;;;;4.28;2.50;;;;;;;-145.63;47.21;39188.53;5065916;28;20021;-66
2023/07/13 00:35:50;;;;;;;3.42;2.50;;;;;;;-145.63;47.28;39170.91;5073977;28;20025;-66
2023/07/13 00:38:16;;;;;;;4.72;2.63;;;;;;;-145.63;47.24;39178.75;5082067;28;20086;-66
2023/07/13 00:40:42;;;;;;;2.70;2.45;;;;;;;-145.63;47.42;38770.03;5078495;28;20078;-67
2023/07/13 00:43:15;;;;;;;5.25;2.65;;;;;;;-145.63;47.72;39143.53;5084548;28;20028;-67
2023/07/13 00:45:43;;;;;;;4.78;2.40;;;;;;;-145.63;47.31;39168.97;5070565;28;20114;-67
2023/07/13 00:48:10;;;;;;;2.70;2.40;;;;;;;-145.63;47.21;39188.53;5076253;28;20362;-67
2023/07/13 00:50:37;;;;;;;3.45;2.40;;;;;;;-145.63;47.51;39163.09;5071985;28;20119;-67
2023/07/13 00:53:03;;;;;;;3.15;2.35;;;;;;;-145.63;47.56;39153.31;5084054;28;20028;-67
2023/07/13 00:55:29;;;;;;;2.60;2.40;;;;;;;-145.63;47.53;39196.34;5065751;28;20278;-67
2023/07/13 00:57:55;;;;;;;3.00;2.30;;;;;;;-145.63;47.59;39165.06;5082700;28;20039;-67
2023/07/13 01:00:22;;;;;;;4.50;2.25;;;;;;;-145.63;48.04;39137.69;5071806;28;20055;-67
2023/07/13 01:02:49;;;;;;;2.65;2.30;;;;;;;-145.63;48.18;39190.47;5072931;28;20043;-67
2023/07/13 01:05:18;;;;;;;4.47;2.60;;;;;;;-145.63;48.47;39192.44;5082294;28;20063;-67
2023/07/13 01:07:45;;;;;;;4.18;2.65;;;;;;;-145.63;48.12;39163.09;5065286;28;20036;-67
2023/07/13 01:10:12;;;;;;;3.33;2.15;;;;;;;-145.63;48.26;39221.78;5065637;28;20104;-68
2023/07/13 01:12:38;;;;;;;3.83;2.80;;;;;;;-145.63;48.36;39188.53;5064970;28;20043;-68
2023/07/13 01:15:05;;;;;;;3.35;2.47;;;;;;;-145.63;48.31;39168.97;5074949;28;20016;-68
2023/07/13 01:17:33;;;;;;;3.85;2.70;;;;;;;-145.63;48.14;39225.69;5079833;28;20040;-67
2023/07/13 01:19:59;;;;;;;3.38;2.38;;;;;;;-145.63;48.27;39165.06;5065896;28;20036;-67
2023/07/13 01:22:26;;;;;;;3.20;2.33;;;;;;;-145.63;48.34;39172.88;5085116;28;20331;-66
2023/07/13 01:24:53;;;;;;;2.70;2.38;;;;;;;-145.63;48.40;39210.03;5068172;28;20067;-67
2023/07/13 01:27:25;;;;;;;3.25;2.45;;;;;;;-145.63;48.67;39157.22;5076485;28;20165;-67
2023/07/13 01:29:52;;;;;;;2.75;2.53;;;;;;;-145.63;49.09;39184.59;5065365;28;20025;-68
2023/07/13 01:32:25;;;;;;;4.35;2.72;;;;;;;-145.63;48.86;39141.59;5059531;28;20033;-68
2023/07/13 01:34:53;;;;;;;4.28;3.10;;;;;;;-145.63;48.73;39165.06;5058636;28;20328;-68
2023/07/13 01:37:20;;;;;;;4.78;3.10;;;;;;;-145.63;48.58;39196.34;5064927;28;20155;-68
2023/07/13 01:39:46;;;;;;;3.85;2.70;;;;;;;-145.63;48.64;39149.41;5069863;28;20020;-68
2023/07/13 01:42:12;;;;;;;4.55;3.20;;;;;;;-145.63;49.20;39167.00;5065232;28;20032;-67
2023/07/13 01:44:38;;;;;;;4.88;2.28;;;;;;;-145.63;48.83;39008.59;5067498;28;20027;-67
2023/07/13 01:47:04;;;;;;;3.55;2.83;;;;;;;-145.63;49.23;39151.38;5080207;28;20095;-67
2023/07/13 01:49:29;;;;;;;5.95;2.72;;;;;;;-145.63;49.42;39194.38;5064484;28;20025;-67
2023/07/13 01:51:55;;;;;;;3.72;2.50;;;;;;;-145.63;49.35;39012.50;5069690;28;20359;-68
2023/07/13 01:54:20;;;;;;;2.88;2.58;;;;;;;-145.63;49.15;39157.22;5083148;28;20040;-68
2023/07/13 01:56:46;;;;;;;5.35;2.78;;;;;;;-145.63;49.23;39178.75;5064279;28;20032;-68
2023/07/13 01:59:12;;;;;;;3.50;2.55;;;;;;;-145.63;49.10;39184.59;5081164;28;20035;-68
2023/07/13 02:01:37;;;;;;;5.28;3.22;;;;;;;-145.63;48.88;39157.22;5072370;28;20071;-67
2023/07/13 02:04:03;;;;;;;2.97;2.70;;;;;;;-145.63;49.00;39176.78;5071249;28;20355;-67
2023/07/13 02:06:29;;;;;;;4.28;2.35;;;;;;;-145.63;49.02;39172.88;5066159;28;20036;-68
2023/07/13 02:08:55;;;;;;;3.13;2.60;;;;;;;-145.63;49.00;39165.06;5064231;28;20100;-68
2023/07/13 02:11:20;;;;;;;4.28;2.70;;;;;;;-145.63;49.10;39176.78;5063142;28;20052;-68
2023/07/13 02:13:46;;;;;;;5.88;3.30;;;;;;;-145.63;48.96;39153.31;5063900;28;20134;-67
2023/07/13 02:16:12;;;;;;;3.30;2.65;;;;;;;-145.63;48.73;39131.81;5072336;28;20029;-68
2023/07/13 02:18:37;;;;;;;3.70;2.65;;;;;;;-145.63;49.52;39182.66;5080533;28;20032;-68
2023/07/13 02:21:03;;;;;;;4.72;2.45;;;;;;;-145.63;49.40;39170.91;5064200;28;20221;-68
2023/07/13 02:23:29;;;;;;;3.17;2.85;;;;;;;-145.63;49.08;39180.69;5082598;28;20265;-67
2023/07/13 02:25:59;;;;;;;3.80;2.78;;;;;;;-145.63;49.25;39147.44;5070063;28;20040;-68
2023/07/13 02:28:24;;;;;;;3.38;2.70;;;;;;;-145.63;49.04;39176.78;5074067;28;20054;-67
2023/07/13 02:30:50;;;;;;;4.47;2.92;;;;;;;-145.63;49.29;39176.78;5078450;28;20033;-68
2023/07/13 02:33:16;;;;;;;5.20;3.03;;;;;;;-145.63;48.80;39147.44;5065372;28;20210;-68
2023/07/13 02:35:41;;;;;;;4.97;2.67;;;;;;;-145.63;49.44;39159.19;5083767;28;20025;-67
2023/07/13 02:38:08;;;;;;;3.65;3.20;;;;;;;-145.63;49.46;39172.88;5066733;28;20027;-67
2023/07/13 02:40:35;;;;;;;3.83;2.50;;;;;;;-145.63;49.23;39196.34;5068363;28;20029;-67
2023/07/13 02:43:01;;;;;;;4.80;2.85;;;;;;;-145.63;49.34;39135.72;5069041;28;20020;-68
2023/07/13 02:45:28;;;;;;;5.25;2.78;;;;;;;-145.63;49.05;39170.91;5081506;28;20028;-69
2023/07/13 02:47:54;;;;;;;4.55;3.17;;;;;;;-145.63;49.38;39133.75;5063209;28;20106;-69
2023/07/13 02:50:19;;;;;;;3.58;2.85;;;;;;;-145.63;49.38;39165.06;5063458;28;20239;-67
2023/07/13 02:52:45;;;;;;;4.60;2.83;;;;;;;-145.63;49.27;39180.69;5075859;28;20198;-67
2023/07/13 02:55:11;;;;;;;2.88;2.55;;;;;;;-145.63;48.98;39170.91;5076533;28;20096;-67
2023/07/13 02:57:36;;;;;;;6.55;3.13;;;;;;;-145.63;49.10;39176.78;5066675;28;20040;-68
2023/07/13 03:00:07;;;;;;;5.38;3.22;;;;;;;-145.63;49.01;39161.13;5083344;28;20027;-67
2023/07/13 03:02:33;;;;;;;4.97;2.83;;;;;;;-145.63;49.08;39157.22;5064083;28;20040;-67
2023/07/13 03:04:59;;;;;;;5.65;2.92;;;;;;;-145.63;49.17;39155.28;5075644;28;20021;-67
2023/07/13 03:07:25;;;;;;;4.28;3.30;;;;;;;-145.63;49.26;39212.00;5062874;28;20089;-67
2023/07/13 03:09:56;;;;;;;3.10;2.72;;;;;;;-145.63;49.43;39165.06;5062945;28;20071;-68
2023/07/13 03:12:22;;;;;;;6.20;3.40;;;;;;;-145.63;49.12;39155.28;5062932;28;20043;-66
2023/07/13 03:14:48;;;;;;;6.38;3.40;;;;;;;-145.63;49.11;39135.72;5062981;28;20074;-67
2023/07/13 03:17:14;;;;;;;3.10;2.80;;;;;;;-145.63;49.24;39026.19;5079402;28;20024;-67
2023/07/13 03:19:39;;;;;;;3.10;2.78;;;;;;;-145.63;49.02;39149.41;5071258;28;20020;-67
2023/07/13 03:22:05;;;;;;;6.00;2.67;;;;;;;-145.63;48.72;39180.69;5069524;28;20036;-67
2023/07/13 03:24:33;;;;;;;5.32;3.15;;;;;;;-145.63;49.13;39178.75;5080110;28;20016;-67
2023/07/13 03:26:58;;;;;;;4.75;2.72;;;;;;;-145.63;49.27;39163.09;5063205;28;20182;-67
2023/07/13 03:29:24;;;;;;;6.57;2.95;;;;;;;-145.63;48.93;39135.72;5080331;28;20044;-68
2023/07/13 03:31:49;;;;;;;3.90;2.97;;;;;;;-145.63;49.05;39137.69;5064705;28;20029;-68
2023/07/13 03:34:15;;;;;;;4.82;3.25;;;;;;;-145.63;49.14;39176.78;5062652;28;20035;-68
2023/07/13 03:36:41;;;;;;;5.85;2.92;;;;;;;-145.63;49.14;39161.13;5065831;28;20028;-68
2023/07/13 03:39:08;;;;;;;4.72;3.10;;;;;;;-145.63;49.01;39165.06;5082856;28;20340;-67
2023/07/13 03:41:34;;;;;;;10.27;3.42;;;;;;;-145.63;49.25;39186.56;5063706;28;20348;-67
2023/07/13 03:43:59;;;;;;;4.85;2.75;;;;;;;-145.63;49.11;39161.13;5062532;28;20052;-66
2023/07/13 03:46:25;;;;;;;4.05;2.78;;;;;;;-145.63;48.83;39168.97;5071865;28;20028;-67
2023/07/13 03:48:51;;;;;;;3.92;2.25;;;;;;;-145.63;48.92;39145.50;5077881;28;20052;-66
2023/07/13 03:51:17;;;;;;;3.90;2.80;;;;;;;-145.63;48.91;39151.38;5062426;28;20314;-66
2023/07/13 03:53:45;;;;;;;4.40;2.95;;;;;;;-145.63;49.57;39200.25;5062448;28;20230;-66
2023/07/13 03:56:13;;;;;;;4.57;2.65;;;;;;;-145.63;49.40;39133.75;5062617;28;20025;-66
2023/07/13 03:58:40;;;;;;;2.75;2.50;;;;;;;-145.63;48.97;39145.50;5073685;28;20036;-67
2023/07/13 04:01:08;;;;;;;3.25;2.92;;;;;;;-145.63;48.83;39145.50;5076172;28;20098;-66
2023/07/13 04:03:34;;;;;;;4.30;2.70;;;;;;;-145.63;49.15;39176.78;5064163;28;20352;-67
2023/07/13 04:06:00;;;;;;;8.52;3.17;;;;;;;-145.63;48.94;39165.06;5082892;28;20188;-67
2023/07/13 04:08:28;;;;;;;2.97;2.58;;;;;;;-145.63;48.94;39131.81;5064492;28;20037;-68
2023/07/13 04:10:54;;;;;;;3.60;2.50;;;;;;;-145.63;49.02;39129.84;5062368;28;20044;-68
2023/07/13 04:13:20;;;;;;;3.13;2.80;;;;;;;-145.63;49.28;39127.91;5070645;28;20036;-67
2023/07/13 04:15:46;;;;;;;5.07;3.05;;;;;;;-145.63;49.39;39145.50;5078371;28;20222;-68
2023/07/13 04:18:12;;;;;;;6.32;3.28;;;;;;;-145.63;49.15;39125.94;5061422;28;20094;-68
2023/07/13 04:20:38;;;;;;;7.30;2.80;;;;;;;-145.63;48.90;39143.53;5080929;28;20044;-67
2023/07/13 04:23:04;;;;;;;3.95;3.05;;;;;;;-145.63;49.02;39141.59;5068024;28;20036;-68
2023/07/13 04:25:29;;;;;;;3.40;2.83;;;;;;;-145.63;48.90;39137.69;5071581;28;20028;-67
2023/07/13 04:27:55;;;;;;;4.80;2.67;;;;;;;-145.63;48.89;39147.44;5077444;28;20040;-67
2023/07/13 04:30:22;;;;;;;6.03;2.67;;;;;;;-145.63;48.97;39143.53;5062095;28;20063;-67
2023/07/13 04:32:48;;;;;;;3.33;2.80;;;;;;;-145.63;49.09;39137.69;5073540;28;20080;-67
2023/07/13 04:35:14;;;;;;;3.00;2.70;;;;;;;-145.63;49.23;39141.59;5064987;28;20052;-67
2023/07/13 04:37:40;;;;;;;3.53;3.17;;;;;;;-145.63;49.00;39141.59;5065719;28;20335;-67
2023/07/13 04:40:06;;;;;;;3.92;2.75;;;;;;;-145.63;49.19;39141.59;5069603;28;20063;-67
2023/07/13 04:42:34;;;;;;;4.93;3.05;;;;;;;-145.63;48.67;39129.84;5067527;28;20032;-68
2023/07/13 04:45:00;;;;;;;4.53;3.03;;;;;;;-145.63;49.04;39127.91;5085988;28;20028;-68
2023/07/13 04:47:25;;;;;;;7.65;3.25;;;;;;;-145.63;49.04;39122.03;5068731;28;20070;-69
2023/07/13 04:49:51;;;;;;;5.32;3.20;;;;;;;-145.63;49.13;39137.69;5077596;28;20048;-69
2023/07/13 04:52:16;;;;;;;4.25;3.00;;;;;;;-145.63;49.07;39137.69;5078015;28;20033;-67
2023/07/13 04:54:42;;;;;;;9.18;3.13;;;;;;;-145.63;49.24;39110.28;5068353;28;20036;-68
2023/07/13 04:57:08;;;;;;;5.43;4.25;;;;;;;-145.63;49.06;39112.25;5085812;28;20028;-68
2023/07/13 04:59:34;;;;;;;4.57;3.20;;;;;;;-145.63;49.25;39106.38;5067188;28;20055;-68
2023/07/13 05:02:01;;;;;;;6.18;3.30;;;;;;;-145.63;49.34;39145.50;5065488;28;20029;-67
2023/07/13 05:04:27;;;;;;;5.57;3.17;;;;;;;-145.63;49.06;39139.63;5072925;28;20127;-68
2023/07/13 05:06:52;;;;;;;4.35;3.10;;;;;;;-145.63;49.65;39106.38;5081244;28;20037;-67
2023/07/13 05:09:18;;;;;;;6.00;3.55;;;;;;;-145.63;49.62;39086.81;5066117;28;20048;-67
2023/07/13 05:11:44;;;;;;;4.68;3.50;;;;;;;-145.63;48.88;39122.03;5065911;28;20064;-67
2023/07/13 05:14:10;;;;;;;5.70;3.67;;;;;;;-145.63;49.17;39102.47;5064897;28;20104;-67
2023/07/13 05:16:35;;;;;;;7.05;3.35;;;;;;;-145.63;48.91;39110.28;5074942;28;20094;-66
2023/07/13 05:19:02;;;;;;;7.65;4.20;;;;;;;-145.63;48.92;39108.34;5080149;28;20025;-67
2023/07/13 05:21:28;;;;;;;4.20;3.08;;;;;;;-145.63;49.00;39102.47;5065001;28;20341;-67
2023/07/13 05:23:54;;;;;;;6.35;3.50;;;;;;;-145.63;49.06;39098.56;5065189;28;20104;-67
2023/07/13 05:26:20;;;;;;;5.72;3.45;;;;;;;-145.63;48.96;39082.91;5080758;28;20025;-67
2023/07/13 05:28:46;;;;;;;6.13;3.70;;;;;;;-145.63;48.78;39088.78;5073706;28;20083;-67
2023/07/13 05:31:12;;;;;;;5.43;3.67;;;;;;;-145.63;48.58;39067.28;5064760;28;20039;-67
2023/07/13 05:33:38;;;;;;;5.63;3.40;;;;;;;-145.63;48.49;39043.81;5065023;28;20353;-67
2023/07/13 05:36:03;;;;;;;7.75;3.88;;;;;;;-145.63;48.63;39024.25;5065081;28;20033;-66
2023/07/13 05:38:29;;;;;;;8.40;3.80;;;;;;;-145.63;48.67;39012.50;5081927;28;20094;-67
2023/07/13 05:40:55;;;;;;;4.65;3.67;;;;;;;-145.63;48.20;39045.75;5070922;28;20025;-67
2023/07/13 05:43:22;;;;;;;8.88;3.83;;;;;;;-145.63;48.34;39090.75;5064587;28;20037;-68
2023/07/13 05:45:47;;;;;;;8.57;3.50;;;;;;;-145.63;47.84;39030.13;5066548;28;20078;-67
2023/07/13 05:48:13;;;;;;;7.13;3.60;;;;;;;-145.63;47.36;39051.63;5084435;28;20032;-66
2023/07/13 05:50:38;;;;;;;5.78;3.65;;;;;;;-145.63;47.11;38969.50;5066179;28;20087;-67
2023/07/13 05:53:04;;;;;;;7.65;3.45;;;;;;;-145.63;47.38;39039.88;5077893;28;20025;-69
2023/07/13 05:55:30;;;;;;;7.60;4.20;;;;;;;-145.63;47.21;39032.06;5075819;28;20040;-68
2023/07/13 05:57:57;;;;;;;4.85;3.42;;;;;;;-145.63;47.42;39028.16;5068409;28;20029;-68
2023/07/13 06:00:24;;;;;;;6.35;3.88;;;;;;;-145.63;47.15;39090.75;5084299;28;20081;-67
2023/07/13 06:02:50;;;;;;;6.78;3.20;;;;;;;-145.63;47.26;39035.97;5064459;28;20032;-69
2023/07/13 06:05:16;;;;;;;3.72;3.15;;;;;;;-145.63;47.47;39037.94;5079275;28;20033;-68
2023/07/13 06:07:42;;;;;;;7.28;3.28;;;;;;;-145.63;47.26;39059.44;5073909;28;20025;-68
2023/07/13 06:10:07;;;;;;;8.43;3.70;;;;;;;-145.63;46.98;39049.66;5064351;28;20137;-67
2023/07/13 06:12:33;;;;;;;5.90;3.85;;;;;;;-145.63;46.60;39053.59;5064524;28;20236;-67
2023/07/13 06:14:59;;;;;;;4.63;3.58;;;;;;;-145.63;47.16;39043.81;5084038;28;20043;-67
2023/07/13 06:17:24;;;;;;;3.90;3.33;;;;;;;-145.63;46.64;39014.47;5066958;28;20033;-68
2023/07/13 06:19:50;;;;;;;6.10;3.20;;;;;;;-145.63;46.19;39014.47;5073774;28;20020;-68
2023/07/13 06:22:15;;;;;;;5.03;3.15;;;;;;;-145.63;46.15;39026.19;5077419;28;20317;-68
2023/07/13 06:24:41;;;;;;;6.10;3.03;;;;;;;-145.63;46.41;39016.44;5065613;28;20075;-68
2023/07/13 06:27:06;;;;;;;7.50;3.42;;;;;;;-145.63;45.66;39035.97;5083903;28;20194;-67
2023/07/13 06:29:32;;;;;;;6.10;3.58;;;;;;;-145.63;45.97;39020.34;5066944;28;20091;-68
2023/07/13 06:31:57;;;;;;;7.18;4.05;;;;;;;-145.63;46.09;39004.69;5073895;28;20228;-67
2023/07/13 06:34:23;;;;;;;7.50;3.70;;;;;;;-145.63;45.53;38996.88;5063486;28;20037;-68
2023/07/13 06:36:48;;;;;;;9.50;3.95;;;;;;;-145.63;45.40;39008.59;5063640;28;20314;-68
2023/07/13 06:39:14;;;;;;;5.00;3.08;;;;;;;-145.63;44.74;39014.47;5063749;28;20163;-68
2023/07/13 06:41:40;;;;;;;4.97;3.28;;;;;;;-145.63;44.63;39000.78;5066239;28;20032;-68
2023/07/13 06:44:06;;;;;;;12.35;4.78;;;;;;;-145.63;44.85;38959.72;5076223;28;20071;-68
2023/07/13 06:46:32;;;;;;;6.85;5.30;;;;;;;-145.63;44.55;38973.41;5073137;28;20044;-68
2023/07/13 06:48:57;;;;;;;5.85;3.50;;;;;;;-145.63;44.02;39004.69;5067083;28;20291;-67
2023/07/13 06:51:23;;;;;;;7.57;3.90;;;;;;;-145.63;44.19;38953.84;5076256;28;20033;-67
2023/07/13 06:53:49;;;;;;;6.15;3.65;;;;;;;-145.63;43.45;38895.19;5063433;28;20021;-67
2023/07/13 06:56:15;;;;;;;5.88;3.38;;;;;;;-145.63;43.26;38965.56;5077838;28;20209;-68
2023/07/13 06:58:41;;;;;;;6.03;3.08;;;;;;;-145.63;43.41;39004.69;5073650;28;20031;-68
2023/07/13 07:01:07;;;;;;;7.72;3.05;;;;;;;-145.63;43.50;38748.50;5068211;28;20086;-68
2023/07/13 07:03:32;;;;;;;7.00;4.00;;;;;;;-145.63;43.42;39014.47;5082883;28;20028;-68
2023/07/13 07:06:27;;;;;;;4.18;3.20;;;;;;;-145.63;43.05;38959.72;5062819;28;20054;-68
2023/07/13 07:08:53;;;;;;;7.50;4.22;;;;;;;-145.63;43.59;38977.31;5034263;28;20064;-69
2023/07/13 07:11:25;;;;;;;9.70;3.00;;;;;;;-145.63;44.11;39012.50;5057595;28;20294;-69
2023/07/13 07:13:52;;;;;;;4.57;2.83;;;;;;;-145.63;44.21;39079.00;5063023;28;20045;-68
2023/07/13 07:16:19;;;;;;;7.90;3.17;;;;;;;-145.63;45.16;38996.88;5069067;28;20031;-66
2023/07/13 07:18:46;;;;;;;3.58;3.28;;;;;;;-145.63;45.19;39022.28;5080929;28;20088;-66
2023/07/13 07:21:12;;;;;;;8.98;3.33;;;;;;;-145.63;45.24;38991.00;5061287;28;20025;-65
2023/07/13 07:23:38;;;;;;;6.30;3.25;;;;;;;-145.63;44.93;38969.50;5062418;28;20369;-65
2023/07/13 07:26:03;;;;;;;5.80;3.50;;;;;;;-145.63;45.68;39000.78;5075433;28;20028;-65
2023/07/13 07:28:29;;;;;;;11.38;3.38;;;;;;;-145.63;45.64;39020.34;5075127;28;20030;-66
2023/07/13 07:30:57;;;;;;;6.65;3.08;;;;;;;-145.63;45.76;39028.16;5065619;28;20048;-65
2023/07/13 07:33:23;;;;;;;6.82;3.42;;;;;;;-145.63;46.33;39008.59;5068916;28;20033;-64
2023/07/13 07:35:49;;;;;;;5.80;3.00;;;;;;;-145.63;45.41;39035.97;5063173;28;20088;-65
2023/07/13 07:38:15;;;;;;;3.50;2.70;;;;;;;-145.63;46.04;39037.94;5076467;28;20035;-65
2023/07/13 07:40:41;;;;;;;4.85;3.25;;;;;;;-145.63;46.22;39047.72;5065086;28;20314;-65
2023/07/13 07:43:12;;;;;;;4.35;2.65;;;;;;;-145.63;45.97;39020.34;5063210;28;20032;-66
2023/07/13 07:45:39;;;;;;;9.05;2.95;;;;;;;-145.63;45.28;39000.78;5065888;28;20033;-66
2023/07/13 07:48:05;;;;;;;4.93;2.83;;;;;;;-145.63;45.36;39000.78;5069701;28;20033;-65
2023/07/13 07:50:31;;;;;;;4.38;2.80;;;;;;;-145.63;45.80;39014.47;5080296;28;20020;-66
2023/07/13 07:52:57;;;;;;;7.28;3.10;;;;;;;-145.63;46.18;39030.13;5079144;28;20036;-65
2023/07/13 07:55:26;;;;;;;4.95;2.53;;;;;;;-145.63;45.37;39016.44;5075668;28;20385;-65
2023/07/13 07:57:52;;;;;;;4.25;2.88;;;;;;;-145.63;45.58;39028.16;5078950;28;20024;-66
2023/07/13 08:00:18;;;;;;;6.65;3.30;;;;;;;-145.63;45.95;39016.44;5062635;28;20083;-66
2023/07/13 08:02:44;;;;;;;6.78;3.33;;;;;;;-145.63;46.48;39041.84;5064963;28;20095;-69
2023/07/13 08:05:10;;;;;;;5.80;3.67;;;;;;;-145.63;46.08;39018.38;5075594;28;20043;-66
2023/07/13 08:07:37;;;;;;;5.97;3.60;;;;;;;-145.63;47.04;39094.66;5073691;28;20056;-67
2023/07/13 08:10:03;;;;;;;4.55;3.08;;;;;;;-145.63;47.43;39034.03;5070151;28;20059;-67
2023/07/13 08:12:29;;;;;;;8.05;3.30;;;;;;;-145.63;47.83;39051.63;5083033;28;20317;-66
2023/07/13 08:14:57;;;;;;;5.95;3.30;;;;;;;-145.63;47.49;39063.34;5072891;28;20044;-67
2023/07/13 08:17:23;;;;;;;6.13;3.05;;;;;;;-145.63;48.31;39057.50;5072516;28;20041;-66
2023/07/13 08:19:49;;;;;;;5.63;3.38;;;;;;;-145.63;48.67;39086.81;5058764;28;20186;-65
2023/07/13 08:22:15;;;;;;;5.50;3.15;;;;;;;-145.63;48.87;39039.88;5079868;28;20040;-66
2023/07/13 08:24:42;;;;;;;5.53;3.15;;;;;;;-145.63;48.83;39053.59;5066816;28;20024;-66
2023/07/13 08:27:08;;;;;;;5.75;3.03;;;;;;;-145.63;49.06;39045.75;5086297;28;20025;-65
2023/07/13 08:29:33;;;;;;;9.20;3.10;;;;;;;-145.63;48.37;39043.81;5069870;28;20071;-68
2023/07/13 08:31:59;;;;;;;5.32;3.30;;;;;;;-145.63;48.44;39035.97;5075211;28;20020;-66
2023/07/13 08:34:25;;;;;;;7.22;3.40;;;;;;;-145.63;49.04;39043.81;5064918;28;20035;-67
2023/07/13 08:36:50;;;;;;;6.82;3.80;;;;;;;-145.63;49.27;39055.53;5067413;28;20036;-66
2023/07/13 08:39:16;;;;;;;6.70;3.40;;;;;;;-145.63;49.11;39037.94;5085759;28;20028;-67
2023/07/13 08:41:56;;;;;;;8.90;3.65;;;;;;;-145.63;49.54;39061.41;5068376;28;20035;-68
2023/07/13 08:44:48;;;;;;;8.07;4.10;;;;;;;-145.63;49.32;39037.94;5065292;28;20040;-66
2023/07/13 08:47:15;;;;;;;;;;;;;;;-145.63;49.34;38996.88;5064741;28;20036;-67
2023/07/13 08:49:43;;;;;;;8.45;4.32;;;;;;;-145.63;50.52;38269.47;5072829;28;20016;-67
2023/07/13 08:52:34;;;;;;;6.00;3.47;;;;;;;-145.63;50.24;39059.44;5081410;28;20198;-67
2023/07/13 08:55:09;;;;;;;7.03;3.60;;;;;;;-145.63;49.53;39055.53;5074054;28;20086;-67
2023/07/13 08:57:35;;;;;;;7.18;4.20;;;;;;;-145.63;50.30;39063.34;5085617;28;20028;-67
2023/07/13 09:00:04;;;;;;;5.82;4.05;;;;;;;-145.63;50.04;39032.06;5065994;28;20029;-67
2023/07/13 09:02:53;;;;;;;8.35;4.47;;;;;;;-145.63;49.80;38652.69;5080833;28;20317;-67
2023/07/13 09:05:31;;;;;;;6.00;3.83;;;;;;;-145.63;50.67;39020.34;5071551;28;20040;-66
2023/07/13 09:08:22;;;;;;;5.40;3.88;;;;;;;-145.63;49.95;39053.59;5076043;28;20082;-68
2023/07/13 09:10:58;;;;;;;11.48;4.53;;;;;;;-145.63;50.72;39057.50;5044137;28;20114;-67
2023/07/13 09:13:37;;;;;;;8.52;4.10;;;;;;;-145.63;51.25;39043.81;5060174;28;20041;-67
2023/07/13 09:16:03;;;;;;;6.93;3.88;;;;;;;-145.63;50.41;39034.03;5073745;28;20040;-67
2023/07/13 09:18:48;;;;;;;7.45;4.20;;;;;;;-145.63;51.26;39094.66;5045571;28;20191;-66
2023/07/13 09:21:46;;;;;;;6.80;4.20;;;;;;;-145.63;52.60;39065.31;5042993;28;20025;-67
2023/07/13 09:24:28;;;;;;;5.70;3.97;;;;;;;-145.63;52.49;39057.50;5027396;28;20037;-66
2023/07/13 09:26:55;;;;;;;7.57;3.90;;;;;;;-145.63;53.40;39057.50;5081685;28;20039;-65
2023/07/13 09:29:28;;;;;;;5.47;3.60;;;;;;;-145.63;52.60;39096.59;5071202;28;20021;-67
2023/07/13 09:31:58;;;;;;;8.65;3.78;;;;;;;-145.63;52.59;39090.75;5073363;28;20040;-66
2023/07/13 09:34:24;;;;;;;7.85;4.00;;;;;;;-145.63;53.20;39086.81;5070523;28;20082;-66
2023/07/13 09:36:49;;;;;;;5.35;4.13;;;;;;;-145.63;52.88;39086.81;5076508;28;20205;-67
2023/07/13 09:39:28;;;;;;;3.72;3.42;;;;;;;-145.63;53.50;39071.19;5085063;28;20028;-68
2023/07/13 09:42:16;;;;;;;5.75;3.85;;;;;;;-145.63;53.83;39112.25;5067004;28;20260;-68
2023/07/13 09:44:58;;;;;;;6.43;3.63;;;;;;;-145.63;53.10;39071.19;5080801;28;20139;-68
2023/07/13 09:47:29;;;;;;;7.43;3.80;;;;;;;-145.63;52.83;39067.28;5070719;28;20159;-67
2023/07/13 09:50:01;;;;;;;7.33;4.23;;;;;;;-145.63;52.96;39069.22;5056533;28;20025;-70
2023/07/13 09:52:27;;;;;;;6.18;3.80;;;;;;;-145.63;53.63;39059.44;5079624;28;20248;-69
2023/07/13 09:54:59;;;;;;;5.32;4.28;;;;;;;-145.63;53.92;39067.28;5073785;28;20100;-71
2023/07/13 09:57:27;;;;;;;7.25;3.80;;;;;;;-145.63;53.25;39086.81;5082778;28;20301;-68
2023/07/13 09:59:56;;;;;;;6.45;4.53;;;;;;;-145.63;53.92;39061.41;5064929;28;20029;-70
2023/07/13 10:02:35;;;;;;;7.60;3.78;;;;;;;-145.63;53.47;39059.44;5065210;28;20043;-69
2023/07/13 10:05:13;;;;;;;5.55;3.78;;;;;;;-145.63;53.57;39077.06;5074798;28;20325;-66
2023/07/13 10:07:43;;;;;;;5.75;4.05;;;;;;;-145.63;54.10;39055.53;5080933;28;20037;-67
2023/07/13 10:10:19;;;;;;;7.50;4.20;;;;;;;-145.63;54.36;39098.56;5080974;28;20037;-67
2023/07/13 10:12:46;;;;;;;6.72;4.10;;;;;;;-145.63;54.08;39086.81;5064309;28;20032;-67
2023/07/13 10:15:30;;;;;;;7.28;3.92;;;;;;;-145.63;53.90;39098.56;5084212;28;20317;-67
2023/07/13 10:17:57;;;;;;;6.97;4.72;;;;;;;-145.63;53.81;39082.91;5066111;28;20249;-66
2023/07/13 10:20:24;;;;;;;8.73;4.60;;;;;;;-145.63;54.20;39035.97;5068013;28;20037;-69
2023/07/13 10:23:02;;;;;;;5.32;4.15;;;;;;;-145.63;54.57;39086.81;5073328;28;20032;-67
2023/07/13 10:25:32;;;;;;;8.30;4.32;;;;;;;-145.63;54.65;38877.56;5077795;28;20035;-68
2023/07/13 10:28:29;;;;;;;7.97;4.32;;;;;;;-145.63;54.42;39116.16;5065575;28;20325;-67
2023/07/13 10:30:58;;;;;;;6.82;4.30;;;;;;;-145.63;54.65;39104.44;5082124;28;20029;-67
2023/07/13 10:33:24;;;;;;;8.20;5.22;;;;;;;-145.63;54.91;39073.13;5069350;28;20033;-67
2023/07/13 10:35:55;;;;;;;7.95;4.60;;;;;;;-145.63;55.59;39016.44;5063542;28;20033;-67
2023/07/13 10:38:23;;;;;;;7.53;4.30;;;;;;;-145.63;55.50;39125.94;5063707;28;20038;-66
2023/07/13 10:40:52;;;;;;;7.60;4.72;;;;;;;-145.63;55.82;39112.25;5062748;28;20135;-67
2023/07/13 10:43:28;;;;;;;6.55;4.30;;;;;;;-145.63;54.92;39094.66;5067341;28;20025;-67
2023/07/13 10:45:55;;;;;;;7.43;4.18;;;;;;;-145.63;54.69;39137.69;5083429;28;20036;-66
2023/07/13 10:48:23;;;;;;;8.85;4.32;;;;;;;-145.63;55.49;39123.97;5083707;28;20024;-66
2023/07/13 10:50:52;;;;;;;5.85;4.07;;;;;;;-145.63;54.78;39170.91;5066481;28;20039;-66
2023/07/13 10:53:27;;;;;;;5.60;4.38;;;;;;;-145.63;55.31;39102.47;5074787;28;20340;-66
2023/07/13 10:55:53;;;;;;;4.78;3.65;;;;;;;-145.63;55.39;39129.84;5074680;28;20032;-66
2023/07/13 10:58:28;;;;;;;9.77;4.18;;;;;;;-145.63;55.38;39086.81;5062863;28;20280;-69
2023/07/13 11:01:05;;;;;;;7.63;4.07;;;;;;;-145.63;55.77;39151.38;5061851;28;20036;-68
2023/07/13 11:03:38;;;;;;;6.22;4.10;;;;;;;-145.63;55.92;39118.13;5063387;28;20028;-66
2023/07/13 11:06:29;;;;;;;10.55;4.82;;;;;;;-145.63;56.19;39141.59;5074804;28;20031;-67
2023/07/13 11:08:58;;;;;;;6.78;4.15;;;;;;;-145.63;56.26;39129.84;5054188;28;20581;-66
2023/07/13 11:11:29;;;;;;;7.65;3.40;;;;;;;-145.63;56.36;39157.22;5062014;28;20050;-66
2023/07/13 11:13:55;;;;;;;6.47;4.43;;;;;;;-145.63;56.58;39133.75;5061926;28;20036;-67
2023/07/13 11:16:23;;;;;;;9.07;5.00;;;;;;;-145.63;57.97;39176.78;5067799;28;20028;-67
2023/07/13 11:18:53;;;;;;;8.10;4.05;;;;;;;-145.63;57.57;39161.13;5083097;28;20382;-67
2023/07/13 11:21:21;;;;;;;5.93;4.32;;;;;;;-145.63;56.37;39161.13;5043197;28;20037;-66